sensor_id;sensor_type;location;lat;lon;timestamp;P1;durP1;ratioP1;P2;durP2;ratioP2
11568;SDS011;5840;46.894;15.542;2024-02-26T00:01:11;4.87;;;4.47;;
11568;SDS011;5840;46.894;15.542;2024-02-26T00:03:39;5.47;;;4.97;;
11568;SDS011;5840;46.894;15.542;2024-02-26T00:11:12;5.87;;;5.03;;
11568;SDS011;5840;46.894;15.542;2024-02-26T00:13:39;5.13;;;4.63;;
11568;SDS011;5840;46.894;15.542;2024-02-26T00:16:07;4.97;;;4.57;;
11568;SDS011;5840;46.894;15.542;2024-02-26T00:18:35;6.80;;;4.63;;
11568;SDS011;5840;46.894;15.542;2024-02-26T00:21:01;5.57;;;4.33;;
11568;SDS011;5840;46.894;15.542;2024-02-26T00:23:28;5.20;;;4.70;;
11568;SDS011;5840;46.894;15.542;2024-02-26T00:25:55;4.87;;;4.43;;
11568;SDS011;5840;46.894;15.542;2024-02-26T00:28:28;4.70;;;4.30;;
11568;SDS011;5840;46.894;15.542;2024-02-26T00:35:58;5.30;;;4.80;;
11568;SDS011;5840;46.894;15.542;2024-02-26T00:38:25;4.50;;;4.10;;
11568;SDS011;5840;46.894;15.542;2024-02-26T00:40:51;4.80;;;4.40;;
11568;SDS011;5840;46.894;15.542;2024-02-26T00:43:18;5.73;;;5.10;;
11568;SDS011;5840;46.894;15.542;2024-02-26T00:45:45;5.70;;;5.20;;
11568;SDS011;5840;46.894;15.542;2024-02-26T00:48:12;5.03;;;4.63;;
11568;SDS011;5840;46.894;15.542;2024-02-26T00:50:39;5.37;;;4.83;;
11568;SDS011;5840;46.894;15.542;2024-02-26T00:53:08;5.37;;;4.80;;
11568;SDS011;5840;46.894;15.542;2024-02-26T01:00:39;4.87;;;4.37;;
11568;SDS011;5840;46.894;15.542;2024-02-26T01:03:07;4.67;;;4.27;;
11568;SDS011;5840;46.894;15.542;2024-02-26T01:05:35;6.40;;;4.37;;
11568;SDS011;5840;46.894;15.542;2024-02-26T01:08:01;5.83;;;4.77;;
11568;SDS011;5840;46.894;15.542;2024-02-26T01:10:27;4.53;;;4.13;;
11568;SDS011;5840;46.894;15.542;2024-02-26T01:12:54;4.70;;;4.30;;
11568;SDS011;5840;46.894;15.542;2024-02-26T01:15:20;5.10;;;4.70;;
11568;SDS011;5840;46.894;15.542;2024-02-26T01:17:49;6.17;;;5.57;;
11568;SDS011;5840;46.894;15.542;2024-02-26T01:27:45;5.73;;;5.23;;
11568;SDS011;5840;46.894;15.542;2024-02-26T01:30:11;4.33;;;4.00;;
11568;SDS011;5840;46.894;15.542;2024-02-26T01:32:40;4.30;;;3.97;;
11568;SDS011;5840;46.894;15.542;2024-02-26T01:35:07;6.50;;;4.60;;
11568;SDS011;5840;46.894;15.542;2024-02-26T01:40:05;5.10;;;4.60;;
11568;SDS011;5840;46.894;15.542;2024-02-26T01:42:32;4.57;;;4.17;;
11568;SDS011;5840;46.894;15.542;2024-02-26T01:45:00;5.07;;;4.57;;
11568;SDS011;5840;46.894;15.542;2024-02-26T01:52:29;4.70;;;4.23;;
11568;SDS011;5840;46.894;15.542;2024-02-26T01:54:55;4.83;;;4.43;;
11568;SDS011;5840;46.894;15.542;2024-02-26T01:57:21;4.30;;;3.90;;
11568;SDS011;5840;46.894;15.542;2024-02-26T01:59:47;5.10;;;4.60;;
11568;SDS011;5840;46.894;15.542;2024-02-26T02:02:14;4.37;;;3.97;;
11568;SDS011;5840;46.894;15.542;2024-02-26T02:04:41;4.53;;;4.20;;
11568;SDS011;5840;46.894;15.542;2024-02-26T02:07:07;4.63;;;4.23;;
11568;SDS011;5840;46.894;15.542;2024-02-26T02:09:34;4.43;;;4.03;;
11568;SDS011;5840;46.894;15.542;2024-02-26T02:19:28;4.30;;;3.90;;
11568;SDS011;5840;46.894;15.542;2024-02-26T02:21:55;4.20;;;3.90;;
11568;SDS011;5840;46.894;15.542;2024-02-26T02:24:21;4.13;;;3.83;;
11568;SDS011;5840;46.894;15.542;2024-02-26T02:26:48;5.63;;;3.93;;
11568;SDS011;5840;46.894;15.542;2024-02-26T02:29:14;5.03;;;4.00;;
11568;SDS011;5840;46.894;15.542;2024-02-26T02:31:40;4.23;;;3.83;;
11568;SDS011;5840;46.894;15.542;2024-02-26T02:34:07;4.47;;;4.10;;
11568;SDS011;5840;46.894;15.542;2024-02-26T02:36:34;4.17;;;3.77;;
11568;SDS011;5840;46.894;15.542;2024-02-26T02:46:30;5.67;;;4.90;;
11568;SDS011;5840;46.894;15.542;2024-02-26T02:48:58;4.87;;;4.47;;
11568;SDS011;5840;46.894;15.542;2024-02-26T02:51:24;4.93;;;4.43;;
11568;SDS011;5840;46.894;15.542;2024-02-26T02:53:51;4.57;;;4.03;;
11568;SDS011;5840;46.894;15.542;2024-02-26T02:56:17;4.50;;;4.10;;
11568;SDS011;5840;46.894;15.542;2024-02-26T02:58:43;5.13;;;4.53;;
11568;SDS011;5840;46.894;15.542;2024-02-26T03:01:09;5.93;;;5.17;;
11568;SDS011;5840;46.894;15.542;2024-02-26T03:03:36;4.80;;;4.40;;
11568;SDS011;5840;46.894;15.542;2024-02-26T03:13:26;4.77;;;4.37;;
11568;SDS011;5840;46.894;15.542;2024-02-26T03:15:52;5.13;;;4.37;;
11568;SDS011;5840;46.894;15.542;2024-02-26T03:18:19;4.80;;;4.30;;
11568;SDS011;5840;46.894;15.542;2024-02-26T03:20:45;4.80;;;4.40;;
11568;SDS011;5840;46.894;15.542;2024-02-26T03:23:11;4.07;;;3.67;;
11568;SDS011;5840;46.894;15.542;2024-02-26T03:25:39;4.53;;;4.13;;
11568;SDS011;5840;46.894;15.542;2024-02-26T03:28:06;4.40;;;4.00;;
11568;SDS011;5840;46.894;15.542;2024-02-26T03:30:33;4.60;;;4.23;;
11568;SDS011;5840;46.894;15.542;2024-02-26T03:38:02;5.17;;;4.77;;
11568;SDS011;5840;46.894;15.542;2024-02-26T03:40:28;5.03;;;4.53;;
11568;SDS011;5840;46.894;15.542;2024-02-26T03:42:55;5.00;;;4.60;;
11568;SDS011;5840;46.894;15.542;2024-02-26T03:45:22;5.20;;;4.80;;
11568;SDS011;5840;46.894;15.542;2024-02-26T03:47:48;5.00;;;4.53;;
11568;SDS011;5840;46.894;15.542;2024-02-26T03:50:14;4.97;;;4.53;;
11568;SDS011;5840;46.894;15.542;2024-02-26T03:52:41;5.13;;;4.67;;
11568;SDS011;5840;46.894;15.542;2024-02-26T03:55:08;5.13;;;4.73;;
11568;SDS011;5840;46.894;15.542;2024-02-26T04:05:04;5.07;;;4.53;;
11568;SDS011;5840;46.894;15.542;2024-02-26T04:07:34;5.07;;;4.67;;
11568;SDS011;5840;46.894;15.542;2024-02-26T04:10:01;5.93;;;4.80;;
11568;SDS011;5840;46.894;15.542;2024-02-26T04:12:29;5.20;;;4.67;;
11568;SDS011;5840;46.894;15.542;2024-02-26T04:14:56;5.43;;;4.90;;
11568;SDS011;5840;46.894;15.542;2024-02-26T04:17:22;11.37;;;10.43;;
11568;SDS011;5840;46.894;15.542;2024-02-26T04:19:48;13.00;;;11.80;;
11568;SDS011;5840;46.894;15.542;2024-02-26T04:22:15;13.97;;;12.33;;
11568;SDS011;5840;46.894;15.542;2024-02-26T04:32:10;7.37;;;5.50;;
11568;SDS011;5840;46.894;15.542;2024-02-26T04:34:36;5.53;;;5.03;;
11568;SDS011;5840;46.894;15.542;2024-02-26T04:37:02;6.03;;;5.53;;
11568;SDS011;5840;46.894;15.542;2024-02-26T04:39:28;5.57;;;5.07;;
11568;SDS011;5840;46.894;15.542;2024-02-26T04:41:55;7.00;;;4.93;;
11568;SDS011;5840;46.894;15.542;2024-02-26T04:44:21;7.37;;;5.30;;
11568;SDS011;5840;46.894;15.542;2024-02-26T04:46:47;5.67;;;5.00;;
11568;SDS011;5840;46.894;15.542;2024-02-26T04:49:14;5.20;;;4.70;;
11568;SDS011;5840;46.894;15.542;2024-02-26T04:59:04;5.03;;;4.70;;
11568;SDS011;5840;46.894;15.542;2024-02-26T05:01:30;5.00;;;4.50;;
11568;SDS011;5840;46.894;15.542;2024-02-26T05:03:56;6.57;;;4.93;;
11568;SDS011;5840;46.894;15.542;2024-02-26T05:06:23;6.93;;;4.40;;
11568;SDS011;5840;46.894;15.542;2024-02-26T05:08:49;6.73;;;5.73;;
11568;SDS011;5840;46.894;15.542;2024-02-26T05:11:15;5.33;;;4.90;;
11568;SDS011;5840;46.894;15.542;2024-02-26T05:13:43;5.47;;;4.97;;
11568;SDS011;5840;46.894;15.542;2024-02-26T05:16:11;5.30;;;4.87;;
11568;SDS011;5840;46.894;15.542;2024-02-26T05:23:40;4.93;;;4.53;;
11568;SDS011;5840;46.894;15.542;2024-02-26T05:26:08;5.73;;;4.97;;
11568;SDS011;5840;46.894;15.542;2024-02-26T05:28:34;5.80;;;4.97;;
11568;SDS011;5840;46.894;15.542;2024-02-26T05:31:02;6.40;;;5.03;;
11568;SDS011;5840;46.894;15.542;2024-02-26T05:33:29;6.00;;;5.10;;
11568;SDS011;5840;46.894;15.542;2024-02-26T05:35:55;5.40;;;4.93;;
11568;SDS011;5840;46.894;15.542;2024-02-26T05:38:21;6.13;;;5.63;;
11568;SDS011;5840;46.894;15.542;2024-02-26T05:40:48;5.93;;;5.33;;
11568;SDS011;5840;46.894;15.542;2024-02-26T05:48:21;5.73;;;5.10;;
11568;SDS011;5840;46.894;15.542;2024-02-26T05:50:47;5.90;;;5.40;;
11568;SDS011;5840;46.894;15.542;2024-02-26T05:53:14;7.07;;;5.40;;
11568;SDS011;5840;46.894;15.542;2024-02-26T05:55:40;7.47;;;5.60;;
11568;SDS011;5840;46.894;15.542;2024-02-26T05:58:06;5.57;;;5.03;;
11568;SDS011;5840;46.894;15.542;2024-02-26T06:00:33;5.60;;;5.10;;
11568;SDS011;5840;46.894;15.542;2024-02-26T06:02:59;5.93;;;5.43;;
11568;SDS011;5840;46.894;15.542;2024-02-26T06:05:26;5.70;;;5.30;;
11568;SDS011;5840;46.894;15.542;2024-02-26T06:15:20;6.00;;;5.40;;
11568;SDS011;5840;46.894;15.542;2024-02-26T06:17:46;6.07;;;5.37;;
11568;SDS011;5840;46.894;15.542;2024-02-26T06:20:13;7.77;;;7.13;;
11568;SDS011;5840;46.894;15.542;2024-02-26T06:22:39;6.50;;;5.90;;
11568;SDS011;5840;46.894;15.542;2024-02-26T06:25:06;7.63;;;5.43;;
11568;SDS011;5840;46.894;15.542;2024-02-26T06:27:33;5.57;;;5.07;;
11568;SDS011;5840;46.894;15.542;2024-02-26T06:29:59;5.20;;;4.80;;
11568;SDS011;5840;46.894;15.542;2024-02-26T06:32:26;6.30;;;5.70;;
11568;SDS011;5840;46.894;15.542;2024-02-26T06:42:22;5.67;;;5.17;;
11568;SDS011;5840;46.894;15.542;2024-02-26T06:44:48;6.17;;;5.33;;
11568;SDS011;5840;46.894;15.542;2024-02-26T06:47:14;5.30;;;4.80;;
11568;SDS011;5840;46.894;15.542;2024-02-26T06:49:40;5.80;;;5.07;;
11568;SDS011;5840;46.894;15.542;2024-02-26T06:52:06;5.20;;;4.73;;
11568;SDS011;5840;46.894;15.542;2024-02-26T06:54:32;5.03;;;4.63;;
11568;SDS011;5840;46.894;15.542;2024-02-26T06:56:59;4.70;;;4.30;;
11568;SDS011;5840;46.894;15.542;2024-02-26T06:59:26;5.23;;;4.83;;
11568;SDS011;5840;46.894;15.542;2024-02-26T07:06:54;6.40;;;5.90;;
11568;SDS011;5840;46.894;15.542;2024-02-26T07:09:20;7.50;;;6.90;;
11568;SDS011;5840;46.894;15.542;2024-02-26T07:11:47;8.00;;;7.07;;
11568;SDS011;5840;46.894;15.542;2024-02-26T07:14:13;5.03;;;4.47;;
11568;SDS011;5840;46.894;15.542;2024-02-26T07:16:39;6.63;;;6.03;;
11568;SDS011;5840;46.894;15.542;2024-02-26T07:19:06;5.77;;;5.27;;
11568;SDS011;5840;46.894;15.542;2024-02-26T07:21:32;7.93;;;7.20;;
11568;SDS011;5840;46.894;15.542;2024-02-26T07:23:59;7.43;;;6.73;;
11568;SDS011;5840;46.894;15.542;2024-02-26T07:33:54;7.20;;;6.40;;
11568;SDS011;5840;46.894;15.542;2024-02-26T07:36:20;7.13;;;6.43;;
11568;SDS011;5840;46.894;15.542;2024-02-26T07:38:46;9.03;;;6.10;;
11568;SDS011;5840;46.894;15.542;2024-02-26T07:41:13;6.77;;;6.17;;
11568;SDS011;5840;46.894;15.542;2024-02-26T07:43:39;8.77;;;6.37;;
11568;SDS011;5840;46.894;15.542;2024-02-26T07:46:06;7.43;;;6.70;;
11568;SDS011;5840;46.894;15.542;2024-02-26T07:48:32;7.37;;;6.67;;
11568;SDS011;5840;46.894;15.542;2024-02-26T07:50:59;7.13;;;6.43;;
11568;SDS011;5840;46.894;15.542;2024-02-26T07:58:26;6.70;;;6.10;;
11568;SDS011;5840;46.894;15.542;2024-02-26T08:00:52;6.87;;;6.17;;
11568;SDS011;5840;46.894;15.542;2024-02-26T08:03:19;8.80;;;6.90;;
11568;SDS011;5840;46.894;15.542;2024-02-26T08:05:45;7.77;;;7.03;;
11568;SDS011;5840;46.894;15.542;2024-02-26T08:08:11;7.90;;;7.10;;
11568;SDS011;5840;46.894;15.542;2024-02-26T08:10:37;6.90;;;6.27;;
11568;SDS011;5840;46.894;15.542;2024-02-26T08:13:04;8.37;;;7.57;;
11568;SDS011;5840;46.894;15.542;2024-02-26T08:15:31;7.70;;;7.00;;
11568;SDS011;5840;46.894;15.542;2024-02-26T08:23:02;5.77;;;5.27;;
11568;SDS011;5840;46.894;15.542;2024-02-26T08:25:29;7.80;;;6.10;;
11568;SDS011;5840;46.894;15.542;2024-02-26T08:27:55;8.60;;;7.50;;
11568;SDS011;5840;46.894;15.542;2024-02-26T08:30:21;8.90;;;8.00;;
11568;SDS011;5840;46.894;15.542;2024-02-26T08:32:48;7.10;;;6.33;;
11568;SDS011;5840;46.894;15.542;2024-02-26T08:35:14;6.07;;;5.33;;
11568;SDS011;5840;46.894;15.542;2024-02-26T08:37:43;6.80;;;6.10;;
11568;SDS011;5840;46.894;15.542;2024-02-26T08:40:11;7.03;;;6.40;;
11568;SDS011;5840;46.894;15.542;2024-02-26T08:50:02;6.10;;;5.30;;
11568;SDS011;5840;46.894;15.542;2024-02-26T08:52:29;5.80;;;5.30;;
11568;SDS011;5840;46.894;15.542;2024-02-26T08:54:55;6.87;;;6.17;;
11568;SDS011;5840;46.894;15.542;2024-02-26T08:57:22;8.50;;;5.50;;
11568;SDS011;5840;46.894;15.542;2024-02-26T08:59:48;5.37;;;4.83;;
11568;SDS011;5840;46.894;15.542;2024-02-26T09:02:14;5.23;;;4.73;;
11568;SDS011;5840;46.894;15.542;2024-02-26T09:04:40;7.87;;;5.67;;
11568;SDS011;5840;46.894;15.542;2024-02-26T09:07:07;6.20;;;5.70;;
11568;SDS011;5840;46.894;15.542;2024-02-26T09:17:01;3.90;;;3.33;;
11568;SDS011;5840;46.894;15.542;2024-02-26T09:19:28;3.80;;;3.50;;
11568;SDS011;5840;46.894;15.542;2024-02-26T09:21:54;3.77;;;3.47;;
11568;SDS011;5840;46.894;15.542;2024-02-26T09:24:22;6.50;;;4.37;;
11568;SDS011;5840;46.894;15.542;2024-02-26T09:26:49;3.70;;;3.40;;
11568;SDS011;5840;46.894;15.542;2024-02-26T09:29:15;3.90;;;3.53;;
11568;SDS011;5840;46.894;15.542;2024-02-26T09:31:41;7.27;;;6.57;;
11568;SDS011;5840;46.894;15.542;2024-02-26T09:34:09;5.43;;;4.93;;
11568;SDS011;5840;46.894;15.542;2024-02-26T09:44:05;5.13;;;4.40;;
11568;SDS011;5840;46.894;15.542;2024-02-26T09:46:32;5.13;;;3.80;;
11568;SDS011;5840;46.894;15.542;2024-02-26T09:48:59;3.60;;;3.37;;
11568;SDS011;5840;46.894;15.542;2024-02-26T09:51:25;4.40;;;3.77;;
11568;SDS011;5840;46.894;15.542;2024-02-26T09:53:52;4.17;;;3.60;;
11568;SDS011;5840;46.894;15.542;2024-02-26T09:56:18;4.17;;;3.80;;
11568;SDS011;5840;46.894;15.542;2024-02-26T09:58:46;5.40;;;4.33;;
11568;SDS011;5840;46.894;15.542;2024-02-26T10:01:17;3.60;;;3.30;;
11568;SDS011;5840;46.894;15.542;2024-02-26T10:08:48;4.53;;;3.70;;
11568;SDS011;5840;46.894;15.542;2024-02-26T10:11:14;3.60;;;3.30;;
11568;SDS011;5840;46.894;15.542;2024-02-26T10:13:41;3.73;;;3.43;;
11568;SDS011;5840;46.894;15.542;2024-02-26T10:16:07;4.10;;;3.77;;
11568;SDS011;5840;46.894;15.542;2024-02-26T10:18:46;3.67;;;3.40;;
11568;SDS011;5840;46.894;15.542;2024-02-26T10:21:13;4.53;;;3.87;;
11568;SDS011;5840;46.894;15.542;2024-02-26T10:23:42;4.07;;;3.70;;
11568;SDS011;5840;46.894;15.542;2024-02-26T10:26:10;4.37;;;3.70;;
11568;SDS011;5840;46.894;15.542;2024-02-26T10:36:01;4.00;;;3.70;;
11568;SDS011;5840;46.894;15.542;2024-02-26T10:38:27;4.13;;;3.30;;
11568;SDS011;5840;46.894;15.542;2024-02-26T10:40:54;4.77;;;3.67;;
11568;SDS011;5840;46.894;15.542;2024-02-26T10:43:20;4.20;;;3.80;;
11568;SDS011;5840;46.894;15.542;2024-02-26T10:45:47;4.57;;;3.90;;
11568;SDS011;5840;46.894;15.542;2024-02-26T10:48:13;5.03;;;3.77;;
11568;SDS011;5840;46.894;15.542;2024-02-26T10:50:40;4.63;;;3.63;;
11568;SDS011;5840;46.894;15.542;2024-02-26T10:53:12;4.20;;;3.90;;
11568;SDS011;5840;46.894;15.542;2024-02-26T11:00:45;5.67;;;3.50;;
11568;SDS011;5840;46.894;15.542;2024-02-26T11:03:12;3.70;;;3.40;;
11568;SDS011;5840;46.894;15.542;2024-02-26T11:05:42;4.23;;;3.50;;
11568;SDS011;5840;46.894;15.542;2024-02-26T11:08:09;4.70;;;4.30;;
11568;SDS011;5840;46.894;15.542;2024-02-26T11:10:36;4.33;;;3.80;;
11568;SDS011;5840;46.894;15.542;2024-02-26T11:13:04;3.60;;;3.40;;
11568;SDS011;5840;46.894;15.542;2024-02-26T11:15:31;4.00;;;3.70;;
11568;SDS011;5840;46.894;15.542;2024-02-26T11:17:59;3.97;;;3.60;;
11568;SDS011;5840;46.894;15.542;2024-02-26T11:25:30;4.07;;;3.67;;
11568;SDS011;5840;46.894;15.542;2024-02-26T11:27:56;3.57;;;3.23;;
11568;SDS011;5840;46.894;15.542;2024-02-26T11:30:28;3.87;;;3.50;;
11568;SDS011;5840;46.894;15.542;2024-02-26T11:32:58;3.33;;;2.87;;
11568;SDS011;5840;46.894;15.542;2024-02-26T11:35:24;2.37;;;2.17;;
11568;SDS011;5840;46.894;15.542;2024-02-26T11:37:52;2.30;;;2.10;;
11568;SDS011;5840;46.894;15.542;2024-02-26T11:40:19;2.70;;;2.10;;
11568;SDS011;5840;46.894;15.542;2024-02-26T11:42:46;2.70;;;2.50;;
11568;SDS011;5840;46.894;15.542;2024-02-26T11:50:57;2.53;;;2.00;;
11568;SDS011;5840;46.894;15.542;2024-02-26T11:53:24;2.60;;;2.40;;
11568;SDS011;5840;46.894;15.542;2024-02-26T11:56:12;2.20;;;2.10;;
11568;SDS011;5840;46.894;15.542;2024-02-26T11:58:39;1.83;;;1.73;;
11568;SDS011;5840;46.894;15.542;2024-02-26T12:01:05;2.13;;;1.93;;
11568;SDS011;5840;46.894;15.542;2024-02-26T12:03:31;1.70;;;1.60;;
11568;SDS011;5840;46.894;15.542;2024-02-26T12:05:58;1.60;;;1.50;;
11568;SDS011;5840;46.894;15.542;2024-02-26T12:08:26;2.30;;;2.10;;
11568;SDS011;5840;46.894;15.542;2024-02-26T12:15:57;2.10;;;1.80;;
11568;SDS011;5840;46.894;15.542;2024-02-26T12:18:24;2.37;;;1.60;;
11568;SDS011;5840;46.894;15.542;2024-02-26T12:20:57;1.50;;;1.40;;
11568;SDS011;5840;46.894;15.542;2024-02-26T12:23:25;1.63;;;1.53;;
11568;SDS011;5840;46.894;15.542;2024-02-26T12:25:52;1.40;;;1.40;;
11568;SDS011;5840;46.894;15.542;2024-02-26T12:28:18;1.70;;;1.60;;
11568;SDS011;5840;46.894;15.542;2024-02-26T12:30:44;2.30;;;1.50;;
11568;SDS011;5840;46.894;15.542;2024-02-26T12:33:12;1.33;;;1.33;;
11568;SDS011;5840;46.894;15.542;2024-02-26T12:42:53;1.73;;;1.60;;
11568;SDS011;5840;46.894;15.542;2024-02-26T12:45:20;2.27;;;1.73;;
11568;SDS011;5840;46.894;15.542;2024-02-26T12:47:47;1.63;;;1.30;;
11568;SDS011;5840;46.894;15.542;2024-02-26T12:50:14;1.47;;;1.40;;
11568;SDS011;5840;46.894;15.542;2024-02-26T12:52:43;1.57;;;1.47;;
11568;SDS011;5840;46.894;15.542;2024-02-26T12:55:12;2.97;;;1.90;;
11568;SDS011;5840;46.894;15.542;2024-02-26T12:57:41;1.40;;;1.40;;
11568;SDS011;5840;46.894;15.542;2024-02-26T13:00:11;1.80;;;1.70;;
11568;SDS011;5840;46.894;15.542;2024-02-26T13:07:58;1.50;;;1.47;;
11568;SDS011;5840;46.894;15.542;2024-02-26T13:10:25;1.53;;;1.53;;
11568;SDS011;5840;46.894;15.542;2024-02-26T13:12:51;1.90;;;1.60;;
11568;SDS011;5840;46.894;15.542;2024-02-26T13:15:19;1.70;;;1.60;;
11568;SDS011;5840;46.894;15.542;2024-02-26T13:17:47;1.90;;;1.70;;
11568;SDS011;5840;46.894;15.542;2024-02-26T13:20:24;1.80;;;1.70;;
11568;SDS011;5840;46.894;15.542;2024-02-26T13:23:00;1.60;;;1.50;;
11568;SDS011;5840;46.894;15.542;2024-02-26T13:25:27;1.50;;;1.50;;
11568;SDS011;5840;46.894;15.542;2024-02-26T13:33:09;1.70;;;1.60;;
11568;SDS011;5840;46.894;15.542;2024-02-26T13:35:38;1.70;;;1.60;;
11568;SDS011;5840;46.894;15.542;2024-02-26T13:38:05;1.93;;;1.70;;
11568;SDS011;5840;46.894;15.542;2024-02-26T13:40:32;1.83;;;1.73;;
11568;SDS011;5840;46.894;15.542;2024-02-26T13:42:59;2.20;;;1.40;;
11568;SDS011;5840;46.894;15.542;2024-02-26T13:45:26;1.80;;;1.70;;
11568;SDS011;5840;46.894;15.542;2024-02-26T13:47:53;1.63;;;1.53;;
11568;SDS011;5840;46.894;15.542;2024-02-26T13:50:20;1.80;;;1.70;;
11568;SDS011;5840;46.894;15.542;2024-02-26T13:57:51;2.17;;;1.97;;
11568;SDS011;5840;46.894;15.542;2024-02-26T14:00:19;1.90;;;1.80;;
11568;SDS011;5840;46.894;15.542;2024-02-26T14:02:45;2.50;;;1.97;;
11568;SDS011;5840;46.894;15.542;2024-02-26T14:05:12;2.00;;;1.90;;
11568;SDS011;5840;46.894;15.542;2024-02-26T14:07:39;2.00;;;1.90;;
11568;SDS011;5840;46.894;15.542;2024-02-26T14:10:06;1.60;;;1.50;;
11568;SDS011;5840;46.894;15.542;2024-02-26T14:12:35;1.77;;;1.70;;
11568;SDS011;5840;46.894;15.542;2024-02-26T14:15:03;1.90;;;1.80;;
11568;SDS011;5840;46.894;15.542;2024-02-26T14:24:59;2.33;;;2.00;;
11568;SDS011;5840;46.894;15.542;2024-02-26T14:27:25;2.60;;;2.40;;
11568;SDS011;5840;46.894;15.542;2024-02-26T14:29:52;2.53;;;2.33;;
11568;SDS011;5840;46.894;15.542;2024-02-26T14:32:20;1.70;;;1.60;;
11568;SDS011;5840;46.894;15.542;2024-02-26T14:34:47;3.60;;;1.80;;
11568;SDS011;5840;46.894;15.542;2024-02-26T14:37:13;2.83;;;1.90;;
11568;SDS011;5840;46.894;15.542;2024-02-26T14:39:40;2.40;;;2.10;;
11568;SDS011;5840;46.894;15.542;2024-02-26T14:42:08;2.00;;;1.90;;
11568;SDS011;5840;46.894;15.542;2024-02-26T14:52:03;4.40;;;3.10;;
11568;SDS011;5840;46.894;15.542;2024-02-26T14:54:30;2.87;;;2.00;;
11568;SDS011;5840;46.894;15.542;2024-02-26T14:57:02;2.33;;;2.17;;
11568;SDS011;5840;46.894;15.542;2024-02-26T14:59:30;2.67;;;2.47;;
11568;SDS011;5840;46.894;15.542;2024-02-26T15:01:56;3.37;;;2.10;;
11568;SDS011;5840;46.894;15.542;2024-02-26T15:04:24;2.10;;;2.00;;
11568;SDS011;5840;46.894;15.542;2024-02-26T15:06:51;2.10;;;2.00;;
11568;SDS011;5840;46.894;15.542;2024-02-26T15:11:56;2.00;;;1.90;;
11568;SDS011;5840;46.894;15.542;2024-02-26T15:14:23;2.30;;;2.10;;
11568;SDS011;5840;46.894;15.542;2024-02-26T15:16:50;4.40;;;2.30;;
11568;SDS011;5840;46.894;15.542;2024-02-26T15:19:17;2.27;;;2.10;;
11568;SDS011;5840;46.894;15.542;2024-02-26T15:21:44;3.40;;;2.17;;
11568;SDS011;5840;46.894;15.542;2024-02-26T15:24:11;2.57;;;2.30;;
11568;SDS011;5840;46.894;15.542;2024-02-26T15:26:38;2.60;;;2.40;;
11568;SDS011;5840;46.894;15.542;2024-02-26T15:29:06;2.40;;;2.20;;
11568;SDS011;5840;46.894;15.542;2024-02-26T15:36:36;2.33;;;2.07;;
11568;SDS011;5840;46.894;15.542;2024-02-26T15:39:03;2.93;;;2.13;;
11568;SDS011;5840;46.894;15.542;2024-02-26T15:41:30;2.37;;;2.17;;
11568;SDS011;5840;46.894;15.542;2024-02-26T15:43:57;2.60;;;2.40;;
11568;SDS011;5840;46.894;15.542;2024-02-26T15:46:25;2.30;;;2.10;;
11568;SDS011;5840;46.894;15.542;2024-02-26T15:48:52;2.40;;;2.20;;
11568;SDS011;5840;46.894;15.542;2024-02-26T15:51:19;2.77;;;2.57;;
11568;SDS011;5840;46.894;15.542;2024-02-26T15:56:25;2.40;;;2.20;;
11568;SDS011;5840;46.894;15.542;2024-02-26T15:58:54;3.43;;;2.37;;
11568;SDS011;5840;46.894;15.542;2024-02-26T16:01:21;3.47;;;2.50;;
11568;SDS011;5840;46.894;15.542;2024-02-26T16:03:48;2.47;;;2.27;;
11568;SDS011;5840;46.894;15.542;2024-02-26T16:06:16;4.30;;;2.43;;
11568;SDS011;5840;46.894;15.542;2024-02-26T16:08:48;4.00;;;2.30;;
11568;SDS011;5840;46.894;15.542;2024-02-26T16:11:15;2.60;;;2.40;;
11568;SDS011;5840;46.894;15.542;2024-02-26T16:13:44;2.27;;;2.17;;
11568;SDS011;5840;46.894;15.542;2024-02-26T16:21:45;2.50;;;2.30;;
11568;SDS011;5840;46.894;15.542;2024-02-26T16:24:12;4.63;;;2.60;;
11568;SDS011;5840;46.894;15.542;2024-02-26T16:26:39;2.40;;;2.30;;
11568;SDS011;5840;46.894;15.542;2024-02-26T16:29:06;2.60;;;2.40;;
11568;SDS011;5840;46.894;15.542;2024-02-26T16:31:33;2.87;;;2.67;;
11568;SDS011;5840;46.894;15.542;2024-02-26T16:33:59;3.70;;;2.50;;
11568;SDS011;5840;46.894;15.542;2024-02-26T16:36:26;2.97;;;2.77;;
11568;SDS011;5840;46.894;15.542;2024-02-26T16:38:54;2.73;;;2.53;;
11568;SDS011;5840;46.894;15.542;2024-02-26T16:46:22;2.90;;;2.70;;
11568;SDS011;5840;46.894;15.542;2024-02-26T16:48:49;3.10;;;2.80;;
11568;SDS011;5840;46.894;15.542;2024-02-26T16:51:17;3.67;;;2.73;;
11568;SDS011;5840;46.894;15.542;2024-02-26T16:53:44;3.33;;;3.10;;
11568;SDS011;5840;46.894;15.542;2024-02-26T16:56:12;2.60;;;2.43;;
11568;SDS011;5840;46.894;15.542;2024-02-26T16:58:40;4.13;;;2.83;;
11568;SDS011;5840;46.894;15.542;2024-02-26T17:01:07;3.83;;;3.40;;
11568;SDS011;5840;46.894;15.542;2024-02-26T17:03:36;3.43;;;3.00;;
11568;SDS011;5840;46.894;15.542;2024-02-26T17:11:07;3.90;;;3.53;;
11568;SDS011;5840;46.894;15.542;2024-02-26T17:13:34;2.93;;;2.60;;
11568;SDS011;5840;46.894;15.542;2024-02-26T17:16:01;2.77;;;2.47;;
11568;SDS011;5840;46.894;15.542;2024-02-26T17:18:28;3.37;;;2.80;;
11568;SDS011;5840;46.894;15.542;2024-02-26T17:20:54;2.80;;;2.60;;
11568;SDS011;5840;46.894;15.542;2024-02-26T17:23:22;2.67;;;2.57;;
11568;SDS011;5840;46.894;15.542;2024-02-26T17:25:49;3.30;;;3.00;;
11568;SDS011;5840;46.894;15.542;2024-02-26T17:28:17;3.13;;;2.87;;
11568;SDS011;5840;46.894;15.542;2024-02-26T17:38:13;3.17;;;2.87;;
11568;SDS011;5840;46.894;15.542;2024-02-26T17:40:40;3.07;;;2.80;;
11568;SDS011;5840;46.894;15.542;2024-02-26T17:43:07;3.40;;;3.10;;
11568;SDS011;5840;46.894;15.542;2024-02-26T17:45:36;3.43;;;3.13;;
11568;SDS011;5840;46.894;15.542;2024-02-26T17:48:03;3.00;;;2.70;;
11568;SDS011;5840;46.894;15.542;2024-02-26T17:50:34;2.77;;;2.57;;
11568;SDS011;5840;46.894;15.542;2024-02-26T17:53:01;2.80;;;2.60;;
11568;SDS011;5840;46.894;15.542;2024-02-26T17:58:06;2.73;;;2.50;;
11568;SDS011;5840;46.894;15.542;2024-02-26T18:00:34;4.27;;;2.70;;
11568;SDS011;5840;46.894;15.542;2024-02-26T18:03:03;2.90;;;2.60;;
11568;SDS011;5840;46.894;15.542;2024-02-26T18:05:30;2.80;;;2.53;;
11568;SDS011;5840;46.894;15.542;2024-02-26T18:07:57;3.00;;;2.80;;
11568;SDS011;5840;46.894;15.542;2024-02-26T18:10:24;2.73;;;2.60;;
11568;SDS011;5840;46.894;15.542;2024-02-26T18:12:51;2.70;;;2.50;;
11568;SDS011;5840;46.894;15.542;2024-02-26T18:15:26;3.30;;;2.80;;
11568;SDS011;5840;46.894;15.542;2024-02-26T18:23:27;3.97;;;2.30;;
11568;SDS011;5840;46.894;15.542;2024-02-26T18:25:54;2.97;;;2.67;;
11568;SDS011;5840;46.894;15.542;2024-02-26T18:28:21;2.87;;;2.67;;
11568;SDS011;5840;46.894;15.542;2024-02-26T18:30:49;2.30;;;2.20;;
11568;SDS011;5840;46.894;15.542;2024-02-26T18:33:16;2.20;;;2.10;;
11568;SDS011;5840;46.894;15.542;2024-02-26T18:35:44;2.40;;;2.30;;
11568;SDS011;5840;46.894;15.542;2024-02-26T18:38:13;2.73;;;2.53;;
11568;SDS011;5840;46.894;15.542;2024-02-26T18:40:43;2.33;;;2.20;;
11568;SDS011;5840;46.894;15.542;2024-02-26T18:48:14;2.50;;;2.30;;
11568;SDS011;5840;46.894;15.542;2024-02-26T18:50:42;2.10;;;2.00;;
11568;SDS011;5840;46.894;15.542;2024-02-26T18:53:12;2.30;;;2.10;;
11568;SDS011;5840;46.894;15.542;2024-02-26T18:55:40;2.40;;;2.30;;
11568;SDS011;5840;46.894;15.542;2024-02-26T18:58:08;2.13;;;2.03;;
11568;SDS011;5840;46.894;15.542;2024-02-26T19:00:36;2.43;;;2.23;;
11568;SDS011;5840;46.894;15.542;2024-02-26T19:03:04;2.33;;;2.23;;
11568;SDS011;5840;46.894;15.542;2024-02-26T19:05:34;2.70;;;2.50;;
11568;SDS011;5840;46.894;15.542;2024-02-26T19:13:20;2.50;;;2.30;;
11568;SDS011;5840;46.894;15.542;2024-02-26T19:15:49;2.67;;;2.47;;
11568;SDS011;5840;46.894;15.542;2024-02-26T19:18:17;2.60;;;2.40;;
11568;SDS011;5840;46.894;15.542;2024-02-26T19:20:45;3.00;;;2.80;;